Time;durP1;ratioP1;P1;durP2;ratioP2;P2;SDS_P1;SDS_P2;PMS_P1;PMS_P2;Temp;Humidity;BMP_temperature;BMP_pressure;BME280_temperature;BME280_humidity;BME280_pressure;Samples;Min_cycle;Max_cycle;Signal;HPM_P1;HPM_P2
2022/10/29 00:01:23;;;;;;;14.23;7.77;;;14.90;99.90;;;;;;5091416;28;20200;-67
2022/10/29 00:03:50;;;;;;;10.80;7.43;;;14.90;99.90;;;;;;5089872;28;20208;-67
2022/10/29 00:06:17;;;;;;;12.67;7.60;;;14.80;99.90;;;;;;5091299;28;20683;-68
2022/10/29 00:08:44;;;;;;;10.63;7.67;;;14.80;99.90;;;;;;5090863;28;20191;-67
2022/10/29 00:11:12;;;;;;;11.57;7.60;;;14.80;99.90;;;;;;5090680;28;20487;-67
2022/10/29 00:13:40;;;;;;;12.73;8.30;;;14.80;99.90;;;;;;5091094;28;20208;-67
2022/10/29 00:16:08;;;;;;;18.23;7.90;;;14.70;99.90;;;;;;5091211;28;20228;-67
2022/10/29 00:18:36;;;;;;;11.10;7.20;;;14.70;99.90;;;;;;5090721;28;20193;-67
2022/10/29 00:21:04;;;;;;;9.37;6.97;;;14.70;99.90;;;;;;5089957;28;20212;-68
2022/10/29 00:23:31;;;;;;;14.37;7.83;;;14.70;99.90;;;;;;5090702;28;20220;-68
2022/10/29 00:25:59;;;;;;;11.23;7.27;;;14.70;99.90;;;;;;5090987;28;20199;-68
2022/10/29 00:28:26;;;;;;;13.93;7.57;;;14.70;99.90;;;;;;5090856;28;20205;-68
2022/10/29 00:30:53;;;;;;;9.23;7.60;;;14.60;99.90;;;;;;5090922;28;20661;-67
2022/10/29 00:33:20;;;;;;;13.77;7.53;;;14.60;99.90;;;;;;5091125;28;20201;-68
2022/10/29 00:35:56;;;;;;;14.80;7.70;;;14.60;99.90;;;;;;5089463;28;20759;-67
2022/10/29 00:38:23;;;;;;;11.83;7.13;;;14.60;99.90;;;;;;5090831;28;20195;-67
2022/10/29 00:40:50;;;;;;;11.87;7.13;;;14.60;99.90;;;;;;5090577;28;20208;-68
2022/10/29 00:43:19;;;;;;;11.60;7.03;;;14.60;99.90;;;;;;5090688;28;20200;-67
2022/10/29 00:45:51;;;;;;;8.87;7.07;;;14.50;99.90;;;;;;5090623;28;20560;-68
2022/10/29 00:48:18;;;;;;;12.40;7.43;;;14.50;99.90;;;;;;5090778;28;20203;-68
2022/10/29 00:50:47;;;;;;;12.77;7.47;;;14.50;99.90;;;;;;5090732;28;20204;-68
2022/10/29 00:53:18;;;;;;;12.73;8.00;;;14.50;99.90;;;;;;5089269;28;20212;-68
2022/10/29 00:55:45;;;;;;;10.23;7.23;;;14.50;99.90;;;;;;5090502;28;20661;-67
2022/10/29 00:58:12;;;;;;;11.97;7.03;;;14.50;99.90;;;;;;5090557;28;20205;-66
2022/10/29 01:00:39;;;;;;;9.83;6.63;;;14.50;99.90;;;;;;5093119;28;20680;-67
2022/10/29 01:03:06;;;;;;;11.57;6.63;;;14.40;99.90;;;;;;5094072;28;20214;-68
2022/10/29 01:05:35;;;;;;;12.77;7.07;;;14.40;99.90;;;;;;5094515;28;20629;-67
2022/10/29 01:08:03;;;;;;;10.03;7.43;;;14.40;99.90;;;;;;5094038;28;20228;-68
2022/10/29 01:10:40;;;;;;;9.60;7.00;;;14.40;99.90;;;;;;5094257;28;20200;-66
2022/10/29 01:13:25;;;;;;;10.53;7.23;;;14.40;99.90;;;;;;5093467;28;20698;-67
2022/10/29 01:16:02;;;;;;;10.47;6.67;;;14.40;99.90;;;;;;5094248;28;20216;-68
2022/10/29 01:18:35;;;;;;;11.80;7.13;;;14.30;99.90;;;;;;5094478;28;20196;-68
2022/10/29 01:21:37;;;;;;;11.23;7.30;;;14.30;99.90;;;;;;5094243;28;20627;-67
2022/10/29 01:24:38;;;;;;;11.20;6.90;;;14.30;99.90;;;;;;5094188;28;20255;-68
2022/10/29 01:27:35;;;;;;;9.87;6.77;;;14.30;99.90;;;;;;5094091;28;20188;-69
2022/10/29 01:30:09;;;;;;;11.63;7.27;;;14.30;99.90;;;;;;5093042;28;20269;-67
2022/10/29 01:32:48;;;;;;;12.07;7.47;;;14.30;99.90;;;;;;5094073;28;20739;-68
2022/10/29 01:35:21;;;;;;;12.93;7.10;;;14.30;99.90;;;;;;5094140;28;20732;-67
2022/10/29 01:38:04;;;;;;;10.80;7.00;;;14.20;99.90;;;;;;5093789;28;20192;-67
2022/10/29 01:40:36;;;;;;;10.93;6.80;;;14.20;99.90;;;;;;5093873;28;20553;-68
2022/10/29 01:43:08;;;;;;;12.47;7.33;;;14.20;99.90;;;;;;5094130;28;20189;-68
2022/10/29 01:45:39;;;;;;;10.17;6.93;;;14.20;99.90;;;;;;5092769;28;20197;-67
2022/10/29 01:48:11;;;;;;;9.67;6.40;;;14.20;99.90;;;;;;5093622;28;20189;-67
2022/10/29 01:50:42;;;;;;;9.63;6.90;;;14.20;99.90;;;;;;5093949;28;20196;-68
2022/10/29 01:53:09;;;;;;;9.23;6.33;;;14.20;99.90;;;;;;5093724;28;20193;-67
2022/10/29 01:55:36;;;;;;;9.57;6.97;;;14.20;99.90;;;;;;5093406;28;20235;-68
2022/10/29 01:58:05;;;;;;;11.73;6.60;;;14.20;99.90;;;;;;5093813;28;20211;-67
2022/10/29 02:00:37;;;;;;;8.63;6.17;;;14.20;99.90;;;;;;5093654;28;20693;-69
2022/10/29 02:03:24;;;;;;;10.37;6.83;;;14.20;99.90;;;;;;5092686;28;20204;-68
2022/10/29 02:05:59;;;;;;;11.27;7.40;;;14.20;99.90;;;;;;5093609;28;20189;-67
2022/10/29 02:08:36;;;;;;;12.23;7.03;;;14.20;99.90;;;;;;5093527;28;20192;-68
2022/10/29 02:11:09;;;;;;;9.97;6.63;;;14.20;99.90;;;;;;5093526;28;20189;-69
2022/10/29 02:13:41;;;;;;;10.27;6.20;;;14.20;99.90;;;;;;5093387;28;20193;-68
2022/10/29 02:16:10;;;;;;;10.13;6.73;;;14.20;99.90;;;;;;5093434;28;20219;-68
2022/10/29 02:18:41;;;;;;;10.07;6.67;;;14.20;99.90;;;;;;5093179;28;20317;-67
2022/10/29 02:21:08;;;;;;;9.83;6.57;;;14.20;99.90;;;;;;5092177;28;20201;-67
2022/10/29 02:23:35;;;;;;;18.00;7.20;;;14.20;99.90;;;;;;5093189;28;20224;-67
2022/10/29 02:26:02;;;;;;;11.87;6.30;;;14.10;99.90;;;;;;5093425;28;20539;-68
2022/10/29 02:28:28;;;;;;;10.03;6.17;;;14.10;99.90;;;;;;5093370;28;20295;-67
2022/10/29 02:30:55;;;;;;;14.57;6.30;;;14.20;99.90;;;;;;5093172;28;20204;-67
2022/10/29 02:33:22;;;;;;;10.67;6.30;;;14.10;99.90;;;;;;5092988;28;20680;-67
2022/10/29 02:35:50;;;;;;;9.87;6.53;;;14.10;99.90;;;;;;5091820;28;20651;-67
2022/10/29 02:38:17;;;;;;;10.73;6.63;;;14.10;99.90;;;;;;5092999;28;20705;-67
2022/10/29 02:40:44;;;;;;;9.57;6.57;;;14.10;99.90;;;;;;5092783;28;20208;-67
2022/10/29 02:43:10;;;;;;;7.20;6.10;;;14.10;99.90;;;;;;5092497;28;20208;-68
2022/10/29 02:45:37;;;;;;;10.20;6.33;;;14.10;99.90;;;;;;5092881;28;20674;-68
2022/10/29 02:48:04;;;;;;;8.30;6.23;;;14.10;99.90;;;;;;5092659;28;20226;-68
2022/10/29 02:50:31;;;;;;;8.40;5.83;;;14.10;99.90;;;;;;5092426;28;20200;-68
2022/10/29 02:52:59;;;;;;;10.97;6.37;;;14.10;99.90;;;;;;5091736;28;20592;-67
2022/10/29 02:55:25;;;;;;;14.73;6.13;;;14.10;99.90;;;;;;5092555;28;20232;-67
2022/10/29 02:57:52;;;;;;;11.13;6.57;;;14.10;99.90;;;;;;5092651;28;20208;-68
2022/10/29 03:00:19;;;;;;;14.20;6.90;;;14.10;99.90;;;;;;5092450;28;20756;-68
2022/10/29 03:02:46;;;;;;;8.30;5.87;;;14.10;99.90;;;;;;5092331;28;20692;-67
2022/10/29 03:05:12;;;;;;;10.17;6.63;;;14.10;99.90;;;;;;5092379;28;20197;-67
2022/10/29 03:07:39;;;;;;;12.60;6.53;;;14.10;99.90;;;;;;5091033;28;20248;-68
2022/10/29 03:10:08;;;;;;;12.53;6.83;;;14.10;99.90;;;;;;5092399;28;20207;-68
2022/10/29 03:12:35;;;;;;;10.20;6.43;;;14.10;99.90;;;;;;5091955;28;20204;-67
2022/10/29 03:15:02;;;;;;;12.13;7.07;;;14.10;99.90;;;;;;5092547;28;20196;-68
2022/10/29 03:17:28;;;;;;;11.00;6.30;;;14.10;99.90;;;;;;5092149;28;20251;-67
2022/10/29 03:19:55;;;;;;;12.27;6.40;;;14.10;99.90;;;;;;5091925;28;20208;-67
2022/10/29 03:22:22;;;;;;;9.63;6.00;;;14.10;99.90;;;;;;5091148;28;20220;-68
2022/10/29 03:24:48;;;;;;;12.23;6.37;;;14.10;99.90;;;;;;5090833;28;20575;-68
2022/10/29 03:27:16;;;;;;;12.27;6.23;;;14.10;99.90;;;;;;5091826;28;20196;-68
2022/10/29 03:29:43;;;;;;;10.37;6.60;;;14.10;99.90;;;;;;5091979;28;20492;-68
2022/10/29 03:32:10;;;;;;;9.97;6.50;;;14.20;99.90;;;;;;5091822;28;20204;-67
2022/10/29 03:34:36;;;;;;;10.70;5.87;;;14.10;99.90;;;;;;5091607;28;20201;-67
2022/10/29 03:37:04;;;;;;;8.97;5.37;;;14.10;99.90;;;;;;5091504;28;20228;-67
2022/10/29 03:39:30;;;;;;;10.97;6.20;;;14.10;99.90;;;;;;5090425;28;20212;-68
2022/10/29 03:41:57;;;;;;;12.57;6.30;;;14.20;99.90;;;;;;5091681;28;20211;-68
2022/10/29 03:44:25;;;;;;;10.40;6.33;;;14.20;99.90;;;;;;5091270;28;20197;-68
2022/10/29 03:46:52;;;;;;;10.70;6.17;;;14.20;99.90;;;;;;5091590;28;20228;-67
2022/10/29 03:49:19;;;;;;;13.60;6.03;;;14.20;99.90;;;;;;5091604;28;20200;-67
2022/10/29 03:51:45;;;;;;;9.80;5.97;;;14.20;99.90;;;;;;5091682;28;20645;-67
2022/10/29 03:54:12;;;;;;;11.70;6.47;;;14.20;99.90;;;;;;5091688;28;20224;-68
2022/10/29 03:56:39;;;;;;;9.00;5.67;;;14.20;99.90;;;;;;5090324;28;20220;-67
2022/10/29 03:59:05;;;;;;;12.07;6.03;;;14.20;99.90;;;;;;5091571;28;20211;-67
2022/10/29 04:01:33;;;;;;;8.43;6.27;;;14.20;99.90;;;;;;5091362;28;20215;-68
2022/10/29 04:04:00;;;;;;;7.77;5.33;;;14.20;99.90;;;;;;5091182;28;20672;-68
2022/10/29 04:06:27;;;;;;;13.33;6.40;;;14.30;99.90;;;;;;5090915;28;20244;-68
2022/10/29 04:08:55;;;;;;;10.53;6.17;;;14.20;99.90;;;;;;5091527;28;20265;-67
2022/10/29 04:11:22;;;;;;;9.40;5.63;;;14.20;99.90;;;;;;5090030;28;20637;-67
2022/10/29 04:13:52;;;;;;;10.57;5.53;;;14.30;99.90;;;;;;5091020;28;20623;-67
2022/10/29 04:16:18;;;;;;;12.87;5.53;;;14.30;99.90;;;;;;5090777;28;20293;-67
2022/10/29 04:18:48;;;;;;;8.70;5.33;;;14.30;99.90;;;;;;5090557;28;20200;-67
2022/10/29 04:21:15;;;;;;;12.10;5.77;;;14.30;99.90;;;;;;5090843;28;20541;-67
2022/10/29 04:23:42;;;;;;;9.30;5.30;;;14.40;99.90;;;;;;5091066;28;20244;-67
2022/10/29 04:26:08;;;;;;;10.13;5.93;;;14.40;99.90;;;;;;5090907;28;20202;-68
2022/10/29 04:28:35;;;;;;;9.20;5.57;;;14.40;99.90;;;;;;5090861;28;20208;-68
2022/10/29 04:31:05;;;;;;;9.60;4.90;;;14.40;99.90;;;;;;5090022;28;20689;-67
2022/10/29 04:33:32;;;;;;;12.60;4.90;;;14.40;99.90;;;;;;5090571;28;20193;-67
2022/10/29 04:36:00;;;;;;;11.63;5.10;;;14.40;99.90;;;;;;5090191;28;20708;-68
2022/10/29 04:38:27;;;;;;;9.63;4.90;;;14.50;99.90;;;;;;5090753;28;20205;-67
2022/10/29 04:40:58;;;;;;;9.73;5.63;;;14.50;99.90;;;;;;5090806;28;20200;-67
2022/10/29 04:43:25;;;;;;;10.17;5.43;;;14.50;99.90;;;;;;5090778;28;20225;-67
2022/10/29 04:45:52;;;;;;;8.47;5.00;;;14.50;99.90;;;;;;5089486;28;20603;-67
2022/10/29 04:48:19;;;;;;;9.90;5.50;;;14.60;99.90;;;;;;5090477;28;20205;-68
2022/10/29 04:50:47;;;;;;;7.60;4.50;;;14.60;99.90;;;;;;5090661;28;20208;-67
2022/10/29 04:53:16;;;;;;;10.47;5.47;;;14.60;99.90;;;;;;5090557;28;20303;-67
2022/10/29 04:55:44;;;;;;;8.23;4.60;;;14.70;99.90;;;;;;5090225;28;20200;-68
2022/10/29 04:58:14;;;;;;;11.20;5.80;;;14.70;99.90;;;;;;5090485;28;20669;-68
2022/10/29 05:00:41;;;;;;;8.83;5.17;;;14.70;99.90;;;;;;5090579;28;20689;-67
2022/10/29 05:03:07;;;;;;;8.20;5.17;;;14.70;99.90;;;;;;5088914;28;20440;-67
2022/10/29 05:05:35;;;;;;;8.50;5.80;;;14.80;99.90;;;;;;5090110;28;20215;-67
2022/10/29 05:08:04;;;;;;;9.00;5.50;;;14.80;99.90;;;;;;5090122;28;20228;-68
2022/10/29 05:10:34;;;;;;;8.43;5.30;;;14.70;99.90;;;;;;5090338;28;20209;-68
2022/10/29 05:13:03;;;;;;;7.87;5.20;;;14.80;99.90;;;;;;5090127;28;20207;-66
2022/10/29 05:15:30;;;;;;;10.27;5.00;;;14.80;99.90;;;;;;5090202;28;20692;-68
2022/10/29 05:17:58;;;;;;;8.93;5.33;;;14.80;99.90;;;;;;5090339;28;20216;-67
2022/10/29 05:20:25;;;;;;;7.87;5.50;;;14.80;99.90;;;;;;5089665;28;20212;-68
2022/10/29 05:22:59;;;;;;;9.90;5.30;;;14.90;99.90;;;;;;5090260;28;20217;-67
2022/10/29 05:25:25;;;;;;;13.27;5.47;;;14.90;99.90;;;;;;5090259;28;20201;-68
2022/10/29 05:28:03;;;;;;;9.00;5.00;;;14.90;99.90;;;;;;5090264;28;20605;-66
2022/10/29 05:30:30;;;;;;;9.47;5.20;;;14.90;99.90;;;;;;5090383;28;20192;-67
2022/10/29 05:32:57;;;;;;;8.23;5.03;;;14.90;99.90;;;;;;5090363;28;20201;-68
2022/10/29 05:35:24;;;;;;;10.73;5.30;;;14.90;99.90;;;;;;5089613;28;20204;-67
2022/10/29 05:37:51;;;;;;;9.57;5.63;;;14.90;99.90;;;;;;5089046;28;20232;-67
2022/10/29 05:40:18;;;;;;;7.40;5.27;;;14.90;99.90;;;;;;5090367;28;20201;-68
2022/10/29 05:42:45;;;;;;;10.70;5.13;;;14.90;99.90;;;;;;5090027;28;20665;-67
2022/10/29 05:45:13;;;;;;;12.00;5.30;;;14.90;99.90;;;;;;5090021;28;20231;-68
2022/10/29 05:47:40;;;;;;;8.57;5.53;;;14.90;99.90;;;;;;5093780;28;20204;-67
2022/10/29 05:50:07;;;;;;;7.27;5.20;;;14.90;99.90;;;;;;5093427;28;20208;-68
2022/10/29 05:52:34;;;;;;;10.77;5.17;;;14.90;99.90;;;;;;5093765;28;20197;-67
2022/10/29 05:55:01;;;;;;;7.80;5.00;;;14.90;99.90;;;;;;5092302;28;20205;-67
2022/10/29 05:57:27;;;;;;;10.03;5.10;;;14.90;99.90;;;;;;5093224;28;20216;-67
2022/10/29 05:59:54;;;;;;;9.57;4.50;;;14.90;99.90;;;;;;5093563;28;20197;-68
2022/10/29 06:02:22;;;;;;;10.23;5.30;;;14.90;99.90;;;;;;5093434;28;20204;-67
2022/10/29 06:04:49;;;;;;;15.73;6.43;;;14.90;99.90;;;;;;5093879;28;20216;-68
2022/10/29 06:07:16;;;;;;;10.27;5.10;;;14.90;99.90;;;;;;5093062;28;20667;-68
2022/10/29 06:09:43;;;;;;;10.00;4.80;;;14.90;99.90;;;;;;5093626;28;20215;-67
2022/10/29 06:12:09;;;;;;;8.27;5.10;;;14.90;99.90;;;;;;5092295;28;20211;-67
2022/10/29 06:14:36;;;;;;;8.27;4.93;;;14.90;99.90;;;;;;5093550;28;20204;-68
2022/10/29 06:17:03;;;;;;;11.77;5.67;;;14.90;99.90;;;;;;5093227;28;20220;-67
2022/10/29 06:19:31;;;;;;;8.73;5.20;;;14.90;99.90;;;;;;5093099;28;20204;-67
2022/10/29 06:21:57;;;;;;;9.23;4.93;;;14.90;99.90;;;;;;5093062;28;20206;-67
2022/10/29 06:24:24;;;;;;;7.83;5.63;;;14.90;99.90;;;;;;5093039;28;20216;-67
2022/10/29 06:26:53;;;;;;;7.83;5.07;;;15.00;99.90;;;;;;5091982;28;20212;-68
2022/10/29 06:29:19;;;;;;;11.87;5.27;;;15.00;99.90;;;;;;5093313;28;20208;-68
2022/10/29 06:31:46;;;;;;;8.03;5.50;;;15.00;99.90;;;;;;5092823;28;20204;-68
2022/10/29 06:34:13;;;;;;;12.07;5.47;;;15.10;99.90;;;;;;5093532;28;20571;-68
2022/10/29 06:36:41;;;;;;;11.07;5.07;;;15.10;99.90;;;;;;5094260;28;20227;-68
2022/10/29 06:39:08;;;;;;;9.63;5.63;;;15.10;99.90;;;;;;5094022;28;20205;-68
2022/10/29 06:41:35;;;;;;;8.10;4.93;;;15.20;99.90;;;;;;5094149;28;20688;-68
2022/10/29 06:44:01;;;;;;;10.27;4.83;;;15.30;99.90;;;;;;5092734;28;20709;-68
2022/10/29 06:46:29;;;;;;;10.57;5.13;;;15.30;99.90;;;;;;5093724;28;20196;-68
2022/10/29 06:48:56;;;;;;;7.60;5.30;;;15.40;99.90;;;;;;5094164;28;20228;-67
2022/10/29 06:51:23;;;;;;;9.40;5.40;;;15.50;99.90;;;;;;5093590;28;20200;-68
2022/10/29 06:53:52;;;;;;;8.43;4.77;;;15.60;99.90;;;;;;5093225;28;20212;-67
2022/10/29 06:56:19;;;;;;;5.80;4.40;;;15.70;99.90;;;;;;5093354;28;20228;-68
2022/10/29 06:58:46;;;;;;;7.70;5.00;;;15.80;99.90;;;;;;5092592;28;20581;-68
2022/10/29 07:01:13;;;;;;;10.13;4.73;;;15.80;99.90;;;;;;5092782;28;20200;-68
2022/10/29 07:03:39;;;;;;;10.47;5.53;;;16.00;99.90;;;;;;5091460;28;20219;-68
2022/10/29 07:06:07;;;;;;;9.03;5.30;;;16.00;99.90;;;;;;5092369;28;20668;-68
2022/10/29 07:08:33;;;;;;;13.33;6.60;;;16.10;99.90;;;;;;5092734;28;20200;-68
2022/10/29 07:11:03;;;;;;;10.90;4.70;;;16.20;99.90;;;;;;5091972;28;20196;-68
2022/10/29 07:13:30;;;;;;;9.97;5.53;;;16.40;99.90;;;;;;5092217;28;20562;-68
2022/10/29 07:15:56;;;;;;;11.13;5.17;;;16.50;99.90;;;;;;5091032;28;20212;-67
2022/10/29 07:18:23;;;;;;;9.70;5.53;;;16.60;99.90;;;;;;5091712;28;20228;-68
2022/10/29 07:20:50;;;;;;;8.27;4.93;;;16.70;99.90;;;;;;5092319;28;20599;-67
2022/10/29 07:23:16;;;;;;;9.63;5.38;;;16.80;99.90;;;;;;5091992;28;20697;-67
2022/10/29 07:25:43;;;;;;;8.33;5.27;;;16.90;99.90;;;;;;5092395;28;20204;-68
2022/10/29 07:28:15;;;;;;;9.63;5.25;;;17.00;99.90;;;;;;5090040;28;20649;-69
2022/10/29 07:30:42;;;;;;;8.53;4.90;;;17.00;99.90;;;;;;5092296;28;20626;-68
2022/10/29 07:33:09;;;;;;;9.32;5.07;;;17.20;99.90;;;;;;5092213;28;20204;-69
2022/10/29 07:35:36;;;;;;;8.82;5.50;;;17.20;99.90;;;;;;5092025;28;20204;-69
2022/10/29 07:38:05;;;;;;;11.15;5.10;;;17.20;99.90;;;;;;5092083;28;20225;-68
2022/10/29 07:40:31;;;;;;;8.40;5.20;;;17.30;99.90;;;;;;5090941;28;20208;-68
2022/10/29 07:42:58;;;;;;;8.65;4.95;;;17.40;99.90;;;;;;5091649;28;20201;-68
2022/10/29 07:45:26;;;;;;;7.25;4.93;;;17.50;99.90;;;;;;5090666;28;20209;-69
2022/10/29 07:47:58;;;;;;;15.18;6.47;;;17.60;99.90;;;;;;5091615;28;20222;-68
2022/10/29 07:50:25;;;;;;;8.93;5.15;;;17.70;99.90;;;;;;5091382;28;20242;-68
2022/10/29 07:52:52;;;;;;;10.40;5.40;;;17.90;99.90;;;;;;5091257;28;20575;-67
2022/10/29 07:55:19;;;;;;;9.20;4.32;;;18.10;99.90;;;;;;5090995;28;20201;-68
2022/10/29 07:57:45;;;;;;;10.05;5.95;;;18.20;99.90;;;;;;5091131;28;20712;-68
2022/10/29 08:00:13;;;;;;;11.13;5.68;;;18.20;99.90;;;;;;5089758;28;20216;-68
2022/10/29 08:02:42;;;;;;;9.93;5.10;;;18.40;99.90;;;;;;5091363;28;20201;-67
2022/10/29 08:05:09;;;;;;;10.32;5.13;;;18.50;99.90;;;;;;5091433;28;20258;-68
2022/10/29 08:07:35;;;;;;;9.43;5.32;;;18.60;99.90;;;;;;5091310;28;20221;-69
2022/10/29 08:10:02;;;;;;;9.98;5.50;;;18.80;99.90;;;;;;5091042;28;20256;-68
2022/10/29 08:12:29;;;;;;;9.93;4.97;;;18.80;99.90;;;;;;5091233;28;20614;-70
2022/10/29 08:14:55;;;;;;;9.25;5.43;;;18.80;99.90;;;;;;5090401;28;20204;-68
2022/10/29 08:17:22;;;;;;;10.80;5.43;;;18.90;99.90;;;;;;5090427;28;20221;-68
2022/10/29 08:19:50;;;;;;;9.05;5.22;;;19.10;99.90;;;;;;5091122;28;20649;-68
2022/10/29 08:22:17;;;;;;;9.27;4.63;;;19.20;99.90;;;;;;5090799;28;20224;-67
2022/10/29 08:24:44;;;;;;;11.95;5.10;;;19.30;99.90;;;;;;5090641;28;20207;-68
2022/10/29 08:27:10;;;;;;;7.38;5.28;;;19.40;99.90;;;;;;5090747;28;20535;-68
2022/10/29 08:29:37;;;;;;;9.77;5.32;;;19.50;99.90;;;;;;5090950;28;20204;-69
2022/10/29 08:32:04;;;;;;;13.80;6.30;;;19.70;99.90;;;;;;5089797;28;20216;-68
2022/10/29 08:34:31;;;;;;;12.25;6.32;;;19.70;99.90;;;;;;5091030;28;20205;-68
2022/10/29 08:36:59;;;;;;;10.95;6.13;;;19.80;99.90;;;;;;5090714;28;20208;-68
2022/10/29 08:39:25;;;;;;;7.18;5.30;;;19.90;99.90;;;;;;5091122;28;20209;-68
2022/10/29 08:42:05;;;;;;;13.00;5.55;;;19.90;99.90;;;;;;5089488;28;20247;-68
2022/10/29 08:44:53;;;;;;;15.00;7.10;;;20.10;99.90;;;;;;5089663;28;20211;-68
2022/10/29 08:47:21;;;;;;;10.30;5.55;;;20.80;99.90;;;;;;5090859;28;20211;-68
2022/10/29 08:49:59;;;;;;;13.20;5.95;;;21.70;99.90;;;;;;5089228;28;20722;-68
2022/10/29 08:52:29;;;;;;;10.25;5.28;;;22.80;99.90;;;;;;5090822;28;20208;-68
2022/10/29 08:55:05;;;;;;;13.93;6.28;;;24.70;99.90;;;;;;5090505;28;20201;-68
2022/10/29 08:57:37;;;;;;;13.85;6.20;;;26.50;98.70;;;;;;5090257;28;20217;-68
2022/10/29 09:00:07;;;;;;;8.68;4.88;;;28.00;92.90;;;;;;5090785;28;20200;-69
2022/10/29 09:02:34;;;;;;;12.60;5.10;;;28.90;83.40;;;;;;5090658;28;20554;-67
2022/10/29 09:05:01;;;;;;;11.45;5.72;;;29.20;77.30;;;;;;5089658;28;20212;-68
2022/10/29 09:07:58;;;;;;;13.55;5.47;;;29.00;75.10;;;;;;5090369;28;20229;-68
2022/10/29 09:10:32;;;;;;;10.52;5.15;;;28.60;74.00;;;;;;5090900;28;20189;-68
2022/10/29 09:13:22;;;;;;;12.57;5.40;;;27.80;73.20;;;;;;5090310;28;20638;-68
2022/10/29 09:16:05;;;;;;;15.48;5.93;;;26.50;76.90;;;;;;5090763;28;20626;-68
2022/10/29 09:18:44;;;;;;;10.10;6.28;;;25.40;80.50;;;;;;5090419;28;20208;-68
2022/10/29 09:21:22;;;;;;;17.17;6.57;;;24.50;83.90;;;;;;5090945;28;20199;-68
2022/10/29 09:24:02;;;;;;;11.88;6.13;;;23.60;87.10;;;;;;5094590;28;20696;-68
2022/10/29 09:26:31;;;;;;;13.23;5.60;;;22.90;90.80;;;;;;5094289;28;20189;-68
2022/10/29 09:29:27;;;;;;;14.75;6.70;;;22.50;92.50;;;;;;5091999;28;20204;-68
2022/10/29 09:31:57;;;;;;;10.60;6.75;;;22.20;93.50;;;;;;5087396;28;20677;-69
2022/10/29 09:34:30;;;;;;;18.73;6.05;;;22.20;95.10;;;;;;5093942;28;20196;-68
2022/10/29 09:36:57;;;;;;;13.60;6.40;;;22.20;95.40;;;;;;5094138;28;20185;-67
2022/10/29 09:39:32;;;;;;;14.25;6.53;;;22.10;95.70;;;;;;5094054;28;20632;-68
2022/10/29 09:42:01;;;;;;;11.35;6.80;;;22.00;96.20;;;;;;5093882;28;20199;-68
2022/10/29 09:44:35;;;;;;;14.15;7.00;;;22.20;96.70;;;;;;5094214;28;20741;-68
2022/10/29 09:47:16;;;;;;;12.23;7.32;;;22.00;96.70;;;;;;5094279;28;20672;-68
2022/10/29 09:49:56;;;;;;;11.63;7.10;;;21.70;97.40;;;;;;5073575;28;20638;-68
2022/10/29 09:52:26;;;;;;;11.20;6.70;;;21.40;98.80;;;;;;5078574;28;20204;-68
2022/10/29 09:54:55;;;;;;;14.98;7.63;;;21.10;99.40;;;;;;5093846;28;20199;-69
2022/10/29 09:57:25;;;;;;;10.50;7.18;;;20.80;99.90;;;;;;5093788;28;20205;-68
2022/10/29 09:59:54;;;;;;;17.80;7.57;;;20.40;99.90;;;;;;5093805;28;20216;-68
2022/10/29 10:02:29;;;;;;;18.67;7.63;;;20.10;99.90;;;;;;5093730;28;20430;-68
2022/10/29 10:05:01;;;;;;;17.42;7.80;;;19.80;99.90;;;;;;5093698;28;20577;-69
2022/10/29 10:07:28;;;;;;;14.48;8.00;;;19.40;99.90;;;;;;5093174;28;20251;-68
2022/10/29 10:09:59;;;;;;;13.55;8.30;;;19.20;99.90;;;;;;5092232;28;20209;-68
2022/10/29 10:12:27;;;;;;;15.82;8.95;;;19.00;99.90;;;;;;5093664;28;20231;-68
2022/10/29 10:15:17;;;;;;;14.63;8.43;;;18.80;99.90;;;;;;5093632;28;20448;-68
2022/10/29 10:17:56;;;;;;;15.38;8.90;;;18.70;99.90;;;;;;5093572;28;20603;-68
2022/10/29 10:20:33;;;;;;;16.77;8.50;;;18.60;99.90;;;;;;5093869;28;20680;-68
2022/10/29 10:23:00;;;;;;;18.90;8.70;;;18.50;99.90;;;;;;5093052;28;20727;-69
2022/10/29 10:25:35;;;;;;;16.35;9.07;;;18.40;99.90;;;;;;5092191;28;20201;-68
2022/10/29 10:28:18;;;;;;;20.88;8.80;;;18.30;99.90;;;;;;5093667;28;20184;-67
2022/10/29 10:30:45;;;;;;;16.63;9.65;;;18.30;99.90;;;;;;5093184;28;20284;-68
2022/10/29 10:33:23;;;;;;;19.33;9.60;;;18.20;99.90;;;;;;5092035;28;20204;-68
2022/10/29 10:35:51;;;;;;;18.95;9.40;;;18.20;99.90;;;;;;5092934;28;20185;-68
2022/10/29 10:38:18;;;;;;;16.30;9.88;;;18.10;99.90;;;;;;5093747;28;20235;-68
2022/10/29 10:40:55;;;;;;;17.30;10.23;;;18.10;99.90;;;;;;5093379;28;20557;-68
2022/10/29 10:43:24;;;;;;;19.60;10.70;;;18.00;99.90;;;;;;5092175;28;20200;-68
2022/10/29 10:45:54;;;;;;;20.52;10.07;;;17.90;99.90;;;;;;5092205;28;20680;-69
2022/10/29 10:48:23;;;;;;;19.45;10.43;;;17.80;99.90;;;;;;5092410;28;20661;-67
2022/10/29 10:50:51;;;;;;;17.80;9.90;;;17.70;99.90;;;;;;5093177;28;20227;-68
2022/10/29 10:53:20;;;;;;;21.55;11.52;;;17.70;99.90;;;;;;5093018;28;20684;-67
2022/10/29 10:55:52;;;;;;;18.73;10.63;;;17.70;99.90;;;;;;5093159;28;20664;-67
2022/10/29 10:58:26;;;;;;;20.90;10.52;;;17.60;99.90;;;;;;5092952;28;20208;-68
2022/10/29 11:01:00;;;;;;;14.73;10.60;;;18.10;99.90;;;;;;5093031;28;20637;-67
2022/10/29 11:03:32;;;;;;;17.35;9.27;;;19.90;99.90;;;;;;5092083;28;20640;-68
2022/10/29 11:06:06;;;;;;;16.17;8.60;;;22.30;99.90;;;;;;5092645;28;20652;-68
2022/10/29 11:08:36;;;;;;;15.15;8.82;;;24.90;99.90;;;;;;5092532;28;20188;-69
2022/10/29 11:11:10;;;;;;;16.23;9.02;;;27.10;99.90;;;;;;5091948;28;20204;-68
2022/10/29 11:13:40;;;;;;;17.60;8.63;;;27.70;94.90;;;;;;5092379;28;20188;-67
2022/10/29 11:16:15;;;;;;;14.02;8.38;;;27.20;92.00;;;;;;5092405;28;20254;-68
2022/10/29 11:18:48;;;;;;;17.10;8.73;;;26.10;92.20;;;;;;5091318;28;20223;-67
2022/10/29 11:21:21;;;;;;;19.35;8.25;;;25.10;94.00;;;;;;5089039;28;20200;-67
2022/10/29 11:23:56;;;;;;;17.27;8.85;;;24.10;96.00;;;;;;5092232;28;20223;-67
2022/10/29 11:26:31;;;;;;;12.25;8.27;;;23.30;97.80;;;;;;5092376;28;20205;-68
2022/10/29 11:29:04;;;;;;;19.67;9.10;;;22.70;99.60;;;;;;5092571;28;20221;-67
2022/10/29 11:31:40;;;;;;;17.00;9.40;;;22.20;99.90;;;;;;5092509;28;20204;-68
2022/10/29 11:34:15;;;;;;;20.80;9.02;;;21.60;99.90;;;;;;5092345;28;20191;-68
2022/10/29 11:36:48;;;;;;;19.38;8.48;;;21.00;99.90;;;;;;5089239;28;20215;-68
2022/10/29 11:39:22;;;;;;;18.45;9.18;;;20.60;99.90;;;;;;5087049;28;20224;-69
2022/10/29 11:41:55;;;;;;;15.52;9.35;;;20.20;99.90;;;;;;5087466;28;20657;-69
2022/10/29 11:44:22;;;;;;;17.27;9.23;;;19.90;99.90;;;;;;5091938;28;20193;-68
2022/10/29 11:47:06;;;;;;;18.05;9.05;;;19.70;99.90;;;;;;5092278;28;20239;-69
2022/10/29 11:49:47;;;;;;;16.60;8.45;;;19.60;99.90;;;;;;5091997;28;20184;-67
2022/10/29 11:52:30;;;;;;;14.60;9.23;;;19.40;99.90;;;;;;5092281;28;20188;-68
2022/10/29 11:55:07;;;;;;;17.35;10.02;;;19.30;99.90;;;;;;5091985;28;20185;-67
2022/10/29 11:57:41;;;;;;;17.73;9.80;;;19.20;99.90;;;;;;5090977;28;20204;-67
2022/10/29 12:00:15;;;;;;;13.00;9.57;;;19.20;99.90;;;;;;5092236;28;20688;-68
2022/10/29 12:03:24;;;;;;;18.00;9.13;;;19.30;99.90;;;;;;5092210;28;20214;-67
2022/10/29 12:06:04;;;;;;;14.07;8.68;;;19.50;99.90;;;;;;5028497;28;20240;-68
2022/10/29 12:08:45;;;;;;;16.63;8.85;;;19.70;99.90;;;;;;5087107;28;20203;-68
2022/10/29 12:11:22;;;;;;;14.93;8.95;;;19.90;99.90;;;;;;5091918;28;20185;-67
2022/10/29 12:13:58;;;;;;;12.10;8.20;;;19.90;99.90;;;;;;5090267;28;20208;-68
2022/10/29 12:16:33;;;;;;;13.18;7.65;;;19.80;99.90;;;;;;5091596;28;20200;-67
2022/10/29 12:19:10;;;;;;;15.05;8.63;;;19.90;99.90;;;;;;5091097;28;20588;-68
2022/10/29 12:21:45;;;;;;;11.57;7.95;;;19.90;99.90;;;;;;5090973;28;20193;-68
2022/10/29 12:24:22;;;;;;;15.98;8.23;;;19.90;99.90;;;;;;5090842;28;20230;-67
2022/10/29 12:26:53;;;;;;;12.30;7.45;;;19.90;99.90;;;;;;5091329;28;20194;-68
2022/10/29 12:29:27;;;;;;;15.52;8.23;;;19.80;99.90;;;;;;5090262;28;20807;-68
2022/10/29 12:31:59;;;;;;;12.80;8.77;;;19.90;99.90;;;;;;5091462;28;20193;-72
2022/10/29 12:34:31;;;;;;;10.45;7.43;;;19.90;99.90;;;;;;5091220;28;20199;-69
2022/10/29 12:37:06;;;;;;;18.25;8.75;;;19.80;99.90;;;;;;5090839;28;20192;-68
2022/10/29 12:39:37;;;;;;;11.15;7.43;;;19.80;99.90;;;;;;5091569;28;20211;-68
2022/10/29 12:42:11;;;;;;;13.10;7.82;;;19.60;99.90;;;;;;5091181;28;20201;-69
2022/10/29 12:44:44;;;;;;;12.77;7.90;;;19.50;99.90;;;;;;5090834;28;20200;-67
2022/10/29 12:47:17;;;;;;;15.80;8.13;;;19.40;99.90;;;;;;5089636;28;20215;-68
2022/10/29 12:49:56;;;;;;;11.68;7.72;;;19.30;99.90;;;;;;5090871;28;20228;-68
2022/10/29 12:52:30;;;;;;;13.38;7.70;;;19.20;99.90;;;;;;5090864;28;20526;-69
2022/10/29 12:54:59;;;;;;;13.10;8.25;;;19.20;99.90;;;;;;5090511;28;20188;-68
2022/10/29 12:57:31;;;;;;;12.43;7.20;;;19.20;99.90;;;;;;5094925;28;20801;-68